createdAt,value
2023-12-27T00:02:24.266Z,48.01
2023-12-27T00:04:51.413Z,47.92
2023-12-27T00:07:18.559Z,48.16
2023-12-27T00:09:47.178Z,48.00
2023-12-27T00:12:14.400Z,48.14
2023-12-27T00:14:41.824Z,48.27
2023-12-27T00:17:08.975Z,48.17
2023-12-27T00:19:36.413Z,48.16
2023-12-27T00:22:03.921Z,48.32
2023-12-27T00:24:31.220Z,48.31
2023-12-27T00:26:59.717Z,48.39
2023-12-27T00:29:26.878Z,48.19
2023-12-27T00:31:54.040Z,48.00
2023-12-27T00:34:21.315Z,47.97
2023-12-27T00:36:48.515Z,48.14
2023-12-27T00:39:15.690Z,48.16
2023-12-27T00:41:42.856Z,47.97
2023-12-27T00:44:11.374Z,48.27
2023-12-27T00:46:38.483Z,48.25
2023-12-27T00:49:05.687Z,48.36
2023-12-27T00:51:33.046Z,48.18
2023-12-27T00:54:00.318Z,48.07
2023-12-27T00:56:27.506Z,48.21
2023-12-27T00:58:54.679Z,48.12
2023-12-27T01:01:23.215Z,48.14
2023-12-27T01:03:50.610Z,48.38
2023-12-27T01:06:17.941Z,48.42
2023-12-27T01:08:45.089Z,48.54
2023-12-27T01:11:12.228Z,48.50
2023-12-27T01:13:39.384Z,48.61
2023-12-27T01:16:06.861Z,48.57
2023-12-27T01:18:35.499Z,48.65
2023-12-27T01:21:03.323Z,48.57
2023-12-27T01:23:30.505Z,48.73
2023-12-27T01:25:57.669Z,48.56
2023-12-27T01:28:24.853Z,48.39
2023-12-27T01:30:52.135Z,48.32
2023-12-27T01:33:19.547Z,48.52
2023-12-27T01:35:48.208Z,48.52
2023-12-27T01:38:15.342Z,48.54
2023-12-27T01:40:48.474Z,48.38
2023-12-27T01:43:15.620Z,48.47
2023-12-27T01:45:43.758Z,48.59
2023-12-27T01:48:12.007Z,48.54
2023-12-27T01:50:40.184Z,48.69
2023-12-27T01:53:08.986Z,48.50
2023-12-27T01:55:36.594Z,48.68
2023-12-27T01:58:04.085Z,48.46
2023-12-27T02:00:31.856Z,48.75
2023-12-27T02:03:17.764Z,48.63
2023-12-27T02:05:46.271Z,48.62
2023-12-27T02:08:15.370Z,48.59
2023-12-27T02:10:43.165Z,48.66
2023-12-27T02:13:10.316Z,48.75
2023-12-27T02:15:37.698Z,48.64
2023-12-27T02:18:06.929Z,48.92
2023-12-27T02:20:34.761Z,48.67
2023-12-27T02:23:06.166Z,48.74
2023-12-27T02:25:35.441Z,48.57
2023-12-27T02:28:02.700Z,48.33
2023-12-27T02:30:29.988Z,48.37
2023-12-27T02:32:57.392Z,48.48
2023-12-27T02:35:24.804Z,48.60
2023-12-27T02:37:52.089Z,48.62
2023-12-27T02:40:19.493Z,48.44
2023-12-27T02:42:47.978Z,48.53
2023-12-27T02:45:15.414Z,48.52
2023-12-27T02:47:42.570Z,48.62
2023-12-27T02:50:10.034Z,48.82
2023-12-27T02:52:37.182Z,48.75
2023-12-27T02:55:05.221Z,48.67
2023-12-27T02:57:32.452Z,48.83
2023-12-27T03:00:01.085Z,48.79
2023-12-27T03:02:28.571Z,48.98
2023-12-27T03:04:55.749Z,48.83
2023-12-27T03:07:22.884Z,48.91
2023-12-27T03:09:50.109Z,48.91
2023-12-27T03:12:17.282Z,48.71
2023-12-27T03:14:44.476Z,48.95
2023-12-27T03:17:12.984Z,48.69
2023-12-27T03:19:40.155Z,48.81
2023-12-27T03:22:07.293Z,48.85
2023-12-27T03:24:34.525Z,48.65
2023-12-27T03:27:01.775Z,48.76
2023-12-27T03:29:28.911Z,48.42
2023-12-27T03:31:56.054Z,48.58
2023-12-27T03:34:24.667Z,48.74
2023-12-27T03:36:51.881Z,48.87
2023-12-27T03:39:19.052Z,48.76
2023-12-27T03:41:46.212Z,48.92
2023-12-27T03:44:13.353Z,48.68
2023-12-27T03:46:40.505Z,48.60
2023-12-27T03:49:07.695Z,48.39
2023-12-27T03:51:36.224Z,48.08
2023-12-27T03:54:03.461Z,47.81
2023-12-27T03:56:30.600Z,47.75
2023-12-27T03:58:57.729Z,47.47
2023-12-27T04:01:24.904Z,47.87
2023-12-27T04:03:52.188Z,47.86
2023-12-27T04:06:20.052Z,47.70
2023-12-27T04:08:49.081Z,47.96
2023-12-27T04:11:16.210Z,47.97
2023-12-27T04:13:43.375Z,47.91
2023-12-27T04:16:10.529Z,47.95
2023-12-27T04:18:37.926Z,47.93
2023-12-27T04:21:05.433Z,47.89
2023-12-27T04:23:32.652Z,47.78
2023-12-27T04:26:01.123Z,47.84
2023-12-27T04:28:28.324Z,47.81
2023-12-27T04:30:55.494Z,47.92
2023-12-27T04:33:22.831Z,48.03
2023-12-27T04:35:50.058Z,48.22
2023-12-27T04:38:17.216Z,48.18
2023-12-27T04:40:45.057Z,48.22
2023-12-27T04:43:13.554Z,48.14
2023-12-27T04:45:40.827Z,48.07
2023-12-27T04:48:08.347Z,48.24
2023-12-27T04:50:35.750Z,48.42
2023-12-27T04:53:03.179Z,48.33
2023-12-27T04:55:30.301Z,48.38
2023-12-27T04:57:57.804Z,48.45
2023-12-27T05:00:26.480Z,48.19
2023-12-27T05:02:53.623Z,48.27
2023-12-27T05:05:20.787Z,48.28
2023-12-27T05:07:47.949Z,48.32
2023-12-27T05:10:15.218Z,48.37
2023-12-27T05:12:42.446Z,48.28
2023-12-27T05:15:10.567Z,48.15
2023-12-27T05:17:39.157Z,48.45
2023-12-27T05:20:07.787Z,48.26
2023-12-27T05:22:34.974Z,48.48
2023-12-27T05:25:02.175Z,48.51
2023-12-27T05:27:29.369Z,48.25
2023-12-27T05:29:56.649Z,48.46
2023-12-27T05:32:23.882Z,48.53
2023-12-27T05:34:53.624Z,48.44
2023-12-27T05:37:20.969Z,48.59
2023-12-27T05:39:48.200Z,48.47
2023-12-27T05:42:15.379Z,48.51
2023-12-27T05:44:42.632Z,48.39
2023-12-27T05:47:09.770Z,48.50
2023-12-27T05:49:37.141Z,48.54
2023-12-27T05:52:06.233Z,48.60
2023-12-27T05:54:33.447Z,48.42
2023-12-27T05:57:00.691Z,48.44
2023-12-27T05:59:27.881Z,48.63
2023-12-27T06:01:55.003Z,48.56
2023-12-27T06:04:22.891Z,48.47
2023-12-27T06:06:50.156Z,48.47
2023-12-27T06:09:19.696Z,48.30
2023-12-27T06:11:47.273Z,48.49
2023-12-27T06:14:14.605Z,48.50
2023-12-27T06:16:41.778Z,48.57
2023-12-27T06:19:09.027Z,48.53
2023-12-27T06:21:36.407Z,49.13
2023-12-27T06:24:03.869Z,48.60
2023-12-27T06:26:32.673Z,48.29
2023-12-27T06:28:59.840Z,48.55
2023-12-27T06:31:28.606Z,48.23
2023-12-27T06:33:56.239Z,48.44
2023-12-27T06:36:23.469Z,48.44
2023-12-27T06:38:50.652Z,48.30
2023-12-27T06:41:17.932Z,48.69
2023-12-27T06:43:46.505Z,49.00
2023-12-27T06:46:13.629Z,49.40
2023-12-27T06:48:40.833Z,50.50
2023-12-27T06:51:08.394Z,51.34
2023-12-27T06:53:35.573Z,51.40
2023-12-27T06:56:02.807Z,50.48
2023-12-27T06:58:30.009Z,50.37
2023-12-27T07:00:58.563Z,50.47
2023-12-27T07:03:25.919Z,50.38
2023-12-27T07:05:53.308Z,50.38
2023-12-27T07:08:20.594Z,50.19
2023-12-27T07:10:47.726Z,49.80
2023-12-27T07:13:15.087Z,50.18
2023-12-27T07:15:42.355Z,50.04
2023-12-27T07:18:11.263Z,50.04
2023-12-27T07:20:38.690Z,50.02
2023-12-27T07:23:05.836Z,50.12
2023-12-27T07:25:32.987Z,50.08
2023-12-27T07:28:00.688Z,50.07
2023-12-27T07:30:28.074Z,50.09
2023-12-27T07:32:55.318Z,50.09
2023-12-27T07:35:23.860Z,49.62
2023-12-27T07:37:50.975Z,49.86
2023-12-27T07:40:18.139Z,51.09
2023-12-27T07:42:45.294Z,50.55
2023-12-27T07:45:12.499Z,51.15
2023-12-27T07:47:39.798Z,51.01
2023-12-27T07:50:08.022Z,51.03
2023-12-27T07:52:36.536Z,51.00
2023-12-27T07:55:04.124Z,50.92
2023-12-27T07:57:31.351Z,50.72
2023-12-27T07:59:58.768Z,50.63
2023-12-27T08:02:26.235Z,50.92
2023-12-27T08:04:53.417Z,50.61
2023-12-27T08:07:21.035Z,50.68
2023-12-27T08:09:49.558Z,50.67
2023-12-27T08:12:16.743Z,50.25
2023-12-27T08:14:43.868Z,50.38
2023-12-27T08:17:11.005Z,50.28
2023-12-27T08:19:38.196Z,50.24
2023-12-27T08:22:05.356Z,50.28
2023-12-27T08:24:32.521Z,50.47
2023-12-27T08:27:01.155Z,50.42
2023-12-27T08:29:28.388Z,50.39
2023-12-27T08:31:55.513Z,50.06
2023-12-27T08:34:22.903Z,50.12
2023-12-27T08:36:50.212Z,50.23
2023-12-27T08:39:17.584Z,50.12
2023-12-27T08:41:44.766Z,50.17
2023-12-27T08:44:13.280Z,49.72
2023-12-27T08:46:40.541Z,49.72
2023-12-27T08:49:07.901Z,49.42
2023-12-27T08:51:35.225Z,49.57
2023-12-27T08:54:02.428Z,49.36
2023-12-27T08:56:29.598Z,49.36
2023-12-27T08:58:56.725Z,49.15
2023-12-27T09:01:25.241Z,49.02
2023-12-27T09:03:52.512Z,49.06
2023-12-27T09:06:19.843Z,49.11
2023-12-27T09:08:47.014Z,48.99
2023-12-27T09:11:14.178Z,48.94
2023-12-27T09:13:41.307Z,48.90
2023-12-27T09:16:08.426Z,49.03
2023-12-27T09:18:38.567Z,49.53
2023-12-27T09:21:05.857Z,49.51
2023-12-27T09:23:33.149Z,49.30
2023-12-27T09:26:00.415Z,49.33
2023-12-27T09:28:27.590Z,49.14
2023-12-27T09:30:54.804Z,49.37
2023-12-27T09:33:22.104Z,49.59
2023-12-27T09:35:50.641Z,49.74
2023-12-27T09:38:17.767Z,49.86
2023-12-27T09:40:45.021Z,50.00
2023-12-27T09:43:12.787Z,49.87
2023-12-27T09:45:41.632Z,49.91
2023-12-27T09:48:11.508Z,49.92
2023-12-27T09:50:39.760Z,50.07
2023-12-27T09:53:10.687Z,50.30
2023-12-27T09:55:39.501Z,50.19
2023-12-27T09:58:09.109Z,50.37
2023-12-27T10:00:36.927Z,50.62
2023-12-27T10:03:08.290Z,50.36
2023-12-27T10:05:44.287Z,50.57
2023-12-27T10:08:13.349Z,50.13
2023-12-27T10:10:42.134Z,50.09
2023-12-27T10:13:12.445Z,49.89
2023-12-27T10:15:39.728Z,50.30
2023-12-27T10:18:07.032Z,50.88
2023-12-27T10:20:35.386Z,50.56
2023-12-27T10:23:02.983Z,50.33
2023-12-27T10:25:31.805Z,49.98
2023-12-27T10:27:59.809Z,49.77
2023-12-27T10:30:27.482Z,54.65
2023-12-27T10:32:58.309Z,68.09
2023-12-27T10:35:25.615Z,58.61
2023-12-27T10:37:59.533Z,53.60
2023-12-27T10:40:26.551Z,57.18
2023-12-27T10:42:54.977Z,57.80
2023-12-27T10:45:22.390Z,55.01
2023-12-27T10:47:52.532Z,53.58
2023-12-27T10:50:21.111Z,52.77
2023-12-27T10:52:54.344Z,52.74
2023-12-27T10:55:23.429Z,52.76
2023-12-27T10:57:56.720Z,52.52
2023-12-27T11:00:24.580Z,52.30
2023-12-27T11:02:52.379Z,52.25
2023-12-27T11:05:22.172Z,52.05
2023-12-27T11:07:50.666Z,51.93
2023-12-27T11:10:18.322Z,51.66
2023-12-27T11:12:47.702Z,51.59
2023-12-27T11:15:17.011Z,51.63
2023-12-27T11:17:44.780Z,51.38
2023-12-27T11:20:13.022Z,51.41
2023-12-27T11:22:42.901Z,51.18
2023-12-27T11:25:10.524Z,51.15
2023-12-27T11:27:38.251Z,51.37
2023-12-27T11:30:08.302Z,50.90
2023-12-27T11:32:36.994Z,51.10
2023-12-27T11:35:05.559Z,50.82
2023-12-27T11:37:34.888Z,50.68
2023-12-27T11:40:02.136Z,50.69
2023-12-27T11:42:29.373Z,50.52
2023-12-27T11:44:56.535Z,50.64
2023-12-27T11:47:23.906Z,50.41
2023-12-27T11:50:20.789Z,50.54
2023-12-27T11:52:55.849Z,50.48
2023-12-27T11:55:32.562Z,50.10
2023-12-27T11:57:59.899Z,50.32
2023-12-27T12:00:27.996Z,50.25
2023-12-27T12:02:57.977Z,50.16
2023-12-27T12:05:48.346Z,50.25
2023-12-27T12:08:22.351Z,50.37
2023-12-27T12:11:07.435Z,50.49
2023-12-27T12:13:34.745Z,50.24
2023-12-27T12:16:02.441Z,50.50
2023-12-27T12:18:30.852Z,50.53
2023-12-27T12:20:59.466Z,50.48
2023-12-27T12:23:29.746Z,50.43
2023-12-27T12:25:57.884Z,50.16
2023-12-27T12:28:25.122Z,50.32
2023-12-27T12:30:52.700Z,50.42
2023-12-27T12:33:20.095Z,50.19
2023-12-27T12:35:47.711Z,50.62
2023-12-27T12:38:16.305Z,50.36
2023-12-27T12:40:43.851Z,50.11
2023-12-27T12:43:11.190Z,49.95
2023-12-27T12:45:38.889Z,49.95
2023-12-27T12:48:07.160Z,49.81
2023-12-27T12:50:34.619Z,49.73
2023-12-27T12:53:14.052Z,50.09
2023-12-27T12:55:42.689Z,49.77
2023-12-27T12:58:09.838Z,49.98
2023-12-27T13:00:37.104Z,49.83
2023-12-27T13:03:05.321Z,50.06
2023-12-27T13:05:32.682Z,49.71
2023-12-27T13:08:05.052Z,49.70
2023-12-27T13:10:32.229Z,49.92
2023-12-27T13:13:00.739Z,49.86
2023-12-27T13:15:27.948Z,49.81
2023-12-27T13:17:55.402Z,49.90
2023-12-27T13:20:22.841Z,49.98
2023-12-27T13:22:49.979Z,49.92
2023-12-27T13:25:17.122Z,49.83
2023-12-27T13:27:46.848Z,49.82
2023-12-27T13:30:18.828Z,49.88
2023-12-27T13:32:46.121Z,49.83
2023-12-27T13:35:13.313Z,49.75
2023-12-27T13:37:40.583Z,49.68
2023-12-27T13:40:08.975Z,49.62
2023-12-27T13:42:36.129Z,49.64
2023-12-27T13:45:03.782Z,49.73
2023-12-27T13:47:32.321Z,49.48
2023-12-27T13:49:59.752Z,49.40
2023-12-27T13:52:27.781Z,49.50
2023-12-27T13:54:54.967Z,49.29
2023-12-27T13:57:22.110Z,49.44
2023-12-27T13:59:49.338Z,49.47
2023-12-27T14:02:16.516Z,49.40
2023-12-27T14:04:45.373Z,49.49
2023-12-27T14:07:12.657Z,49.50
2023-12-27T14:09:40.440Z,49.32
2023-12-27T14:12:07.952Z,49.37
2023-12-27T14:14:35.185Z,49.46
2023-12-27T14:17:02.396Z,49.59
2023-12-27T14:19:29.536Z,49.44
2023-12-27T14:21:58.060Z,49.46
2023-12-27T14:24:25.246Z,49.57
2023-12-27T14:26:52.379Z,49.67
2023-12-27T14:29:19.583Z,49.41
2023-12-27T14:31:46.750Z,49.51
2023-12-27T14:34:14.698Z,49.60
2023-12-27T14:36:42.204Z,49.26
2023-12-27T14:39:11.569Z,49.46
2023-12-27T14:41:41.021Z,49.20
2023-12-27T14:44:08.204Z,49.39
2023-12-27T14:46:35.330Z,49.33
2023-12-27T14:49:04.630Z,49.27
2023-12-27T14:51:31.856Z,49.25
2023-12-27T14:53:58.981Z,49.34
2023-12-27T14:56:27.465Z,49.23
2023-12-27T14:58:54.760Z,49.09
2023-12-27T15:01:21.947Z,49.31
2023-12-27T15:03:49.124Z,49.13
2023-12-27T15:06:16.433Z,49.14
2023-12-27T15:08:43.632Z,49.25
2023-12-27T15:11:14.514Z,49.25
2023-12-27T15:13:43.313Z,49.42
2023-12-27T15:16:15.203Z,49.45
2023-12-27T15:18:42.513Z,49.30
2023-12-27T15:21:16.355Z,49.40
2023-12-27T15:23:44.360Z,49.46
2023-12-27T15:26:17.750Z,49.39
2023-12-27T15:28:46.687Z,49.00
2023-12-27T15:31:17.833Z,48.99
2023-12-27T15:33:45.285Z,49.23
2023-12-27T15:36:14.128Z,49.13
2023-12-27T15:38:41.361Z,49.07
2023-12-27T15:41:17.257Z,49.20
2023-12-27T15:43:45.741Z,48.96
2023-12-27T15:46:16.485Z,49.08
2023-12-27T15:48:43.881Z,48.98
2023-12-27T15:51:21.550Z,49.14
2023-12-27T15:53:48.949Z,48.78
2023-12-27T15:56:23.836Z,48.87
2023-12-27T15:58:52.864Z,48.92
2023-12-27T16:01:20.399Z,48.79
2023-12-27T16:03:49.338Z,48.91
2023-12-27T16:06:18.286Z,48.90
2023-12-27T16:08:45.484Z,49.11
2023-12-27T16:11:12.815Z,49.06
2023-12-27T16:13:39.982Z,49.00
2023-12-27T16:16:09.023Z,49.00
2023-12-27T16:18:36.687Z,48.88
2023-12-27T16:21:04.736Z,49.07
2023-12-27T16:23:32.634Z,48.92
2023-12-27T16:25:59.886Z,48.73
2023-12-27T16:28:27.470Z,48.86
2023-12-27T16:30:55.134Z,48.85
2023-12-27T16:33:24.252Z,48.96
2023-12-27T16:35:53.397Z,48.60
2023-12-27T16:38:20.536Z,48.89
2023-12-27T16:40:47.788Z,48.73
2023-12-27T16:43:19.001Z,48.85
2023-12-27T16:45:46.244Z,48.91
2023-12-27T16:48:14.681Z,48.88
2023-12-27T16:50:45.161Z,48.70
2023-12-27T16:53:12.742Z,48.72
2023-12-27T16:55:40.239Z,48.50
2023-12-27T16:58:07.759Z,48.64
2023-12-27T17:00:35.130Z,48.56
2023-12-27T17:03:02.607Z,48.72
2023-12-27T17:05:29.868Z,48.89
2023-12-27T17:07:58.639Z,48.81
2023-12-27T17:10:26.231Z,48.77
2023-12-27T17:12:53.376Z,48.69
2023-12-27T17:15:20.696Z,48.70
2023-12-27T17:17:47.944Z,48.63
2023-12-27T17:20:15.215Z,48.79
2023-12-27T17:22:42.417Z,48.66
2023-12-27T17:25:11.256Z,48.44
2023-12-27T17:27:38.786Z,48.77
2023-12-27T17:30:07.882Z,48.72
2023-12-27T17:32:36.564Z,48.69
2023-12-27T17:35:04.240Z,48.60
2023-12-27T17:37:31.363Z,48.48
2023-12-27T17:39:58.512Z,48.63
2023-12-27T17:42:27.024Z,48.42
2023-12-27T17:44:54.172Z,48.55
2023-12-27T17:47:21.329Z,48.45
2023-12-27T17:49:48.500Z,48.37
2023-12-27T17:52:15.718Z,48.44
2023-12-27T17:54:42.936Z,48.40
2023-12-27T17:57:10.098Z,48.26
2023-12-27T17:59:38.715Z,48.59
2023-12-27T18:02:06.072Z,48.63
2023-12-27T18:04:33.268Z,48.51
2023-12-27T18:07:00.449Z,48.66
2023-12-27T18:09:27.652Z,48.69
2023-12-27T18:11:54.798Z,49.13
2023-12-27T18:14:21.926Z,48.93
2023-12-27T18:16:50.543Z,48.21
2023-12-27T18:19:17.744Z,47.42
2023-12-27T18:21:44.999Z,46.95
2023-12-27T18:24:12.506Z,46.68
2023-12-27T18:26:42.372Z,46.37
2023-12-27T18:29:09.827Z,46.55
2023-12-27T18:31:37.121Z,46.41
2023-12-27T18:34:06.339Z,46.44
2023-12-27T18:36:33.654Z,46.71
2023-12-27T18:39:00.862Z,46.66
2023-12-27T18:41:28.265Z,47.09
2023-12-27T18:43:55.435Z,46.80
2023-12-27T18:46:22.616Z,47.04
2023-12-27T18:48:49.842Z,47.02
2023-12-27T18:51:18.520Z,47.51
2023-12-27T18:53:45.727Z,47.33
2023-12-27T18:56:12.848Z,47.51
2023-12-27T18:58:40.060Z,47.61
2023-12-27T19:01:07.395Z,47.84
2023-12-27T19:03:34.677Z,47.88
2023-12-27T19:06:01.860Z,47.95
2023-12-27T19:08:30.379Z,47.78
2023-12-27T19:10:57.528Z,48.04
2023-12-27T19:13:24.667Z,47.76
2023-12-27T19:15:51.928Z,47.75
2023-12-27T19:18:19.208Z,47.75
2023-12-27T19:20:46.366Z,47.91
2023-12-27T19:23:13.580Z,47.67
2023-12-27T19:25:42.102Z,47.96
2023-12-27T19:28:09.268Z,48.04
2023-12-27T19:30:36.488Z,48.04
2023-12-27T19:33:04.237Z,47.90
2023-12-27T19:35:31.462Z,47.94
2023-12-27T19:37:58.631Z,48.08
2023-12-27T19:40:25.743Z,48.25
2023-12-27T19:42:54.326Z,48.26
2023-12-27T19:45:21.813Z,48.24
2023-12-27T19:47:49.059Z,48.18
2023-12-27T19:50:16.332Z,48.21
2023-12-27T19:52:43.509Z,48.18
2023-12-27T19:55:10.871Z,48.40
2023-12-27T19:57:38.077Z,48.17
2023-12-27T20:00:09.489Z,48.48
2023-12-27T20:02:36.634Z,48.39
2023-12-27T20:05:04.431Z,48.08
2023-12-27T20:07:31.595Z,48.15
2023-12-27T20:09:58.734Z,48.16
2023-12-27T20:12:25.901Z,48.19
2023-12-27T20:14:53.072Z,48.24
2023-12-27T20:17:21.680Z,48.15
2023-12-27T20:19:49.052Z,48.25
2023-12-27T20:22:16.341Z,48.33
2023-12-27T20:24:43.570Z,48.24
2023-12-27T20:27:12.395Z,48.11
2023-12-27T20:29:39.987Z,48.42
2023-12-27T20:32:07.479Z,48.39
2023-12-27T20:34:36.064Z,48.50
2023-12-27T20:37:03.350Z,48.30
2023-12-27T20:39:30.575Z,48.32
2023-12-27T20:41:58.833Z,48.42
2023-12-27T20:44:26.252Z,48.38
2023-12-27T20:46:53.463Z,48.51
2023-12-27T20:49:20.769Z,48.47
2023-12-27T20:51:49.414Z,48.54
2023-12-27T20:54:17.659Z,48.48
2023-12-27T20:56:46.113Z,48.43
2023-12-27T20:59:14.820Z,48.40
2023-12-27T21:01:42.730Z,48.40
2023-12-27T21:04:10.025Z,48.41
2023-12-27T21:06:37.562Z,48.24
2023-12-27T21:09:06.114Z,48.19
2023-12-27T21:11:38.578Z,48.48
2023-12-27T21:14:05.746Z,48.22
2023-12-27T21:16:32.922Z,48.20
2023-12-27T21:19:00.285Z,47.99
2023-12-27T21:21:27.540Z,48.38
2023-12-27T21:23:54.747Z,48.35
2023-12-27T21:26:25.154Z,48.30
2023-12-27T21:28:53.706Z,48.31
2023-12-27T21:31:21.142Z,48.47
2023-12-27T21:33:49.934Z,48.26
2023-12-27T21:36:20.711Z,48.41
2023-12-27T21:38:48.153Z,48.44
2023-12-27T21:41:15.333Z,48.34
2023-12-27T21:43:43.838Z,48.48
2023-12-27T21:46:11.048Z,48.56
2023-12-27T21:48:38.323Z,48.46
2023-12-27T21:51:15.739Z,48.32
2023-12-27T21:53:42.939Z,48.60
2023-12-27T21:56:17.511Z,48.55
2023-12-27T21:58:46.613Z,48.43
2023-12-27T22:01:14.074Z,48.35
2023-12-27T22:03:41.751Z,48.51
2023-12-27T22:06:09.130Z,48.27
2023-12-27T22:08:36.758Z,48.33
2023-12-27T22:11:04.220Z,48.30
2023-12-27T22:13:31.509Z,48.23
2023-12-27T22:16:01.478Z,48.32
2023-12-27T22:18:29.206Z,48.35
2023-12-27T22:20:56.556Z,48.48
2023-12-27T22:23:23.677Z,48.42
2023-12-27T22:25:50.801Z,48.37
2023-12-27T22:28:17.981Z,48.33
2023-12-27T22:30:45.444Z,48.41
2023-12-27T22:33:14.268Z,48.51
2023-12-27T22:35:42.351Z,48.39
2023-12-27T22:38:10.161Z,48.53
2023-12-27T22:40:37.670Z,48.44
2023-12-27T22:43:05.204Z,48.40
2023-12-27T22:45:33.424Z,48.49
2023-12-27T22:48:00.971Z,48.33
2023-12-27T22:50:29.738Z,48.37
2023-12-27T22:52:57.024Z,48.43
2023-12-27T22:55:24.332Z,48.50
2023-12-27T22:57:51.551Z,48.43
2023-12-27T23:00:21.851Z,48.20
2023-12-27T23:02:50.247Z,48.34
2023-12-27T23:05:17.930Z,48.25
2023-12-27T23:07:46.905Z,48.14
2023-12-27T23:10:14.536Z,48.19
2023-12-27T23:12:42.724Z,48.24
2023-12-27T23:15:10.745Z,48.20
2023-12-27T23:17:38.871Z,48.28
2023-12-27T23:20:07.483Z,48.22
2023-12-27T23:22:34.664Z,48.12
2023-12-27T23:25:03.581Z,48.33
2023-12-27T23:27:31.014Z,48.38
2023-12-27T23:29:58.309Z,48.53
2023-12-27T23:32:29.368Z,48.41
2023-12-27T23:35:01.524Z,48.56
2023-12-27T23:37:28.785Z,48.37
2023-12-27T23:39:56.019Z,48.39
2023-12-27T23:42:25.247Z,48.38
2023-12-27T23:44:52.385Z,48.59
2023-12-27T23:47:19.532Z,48.34
2023-12-27T23:49:46.714Z,48.41
2023-12-27T23:52:13.899Z,48.37
2023-12-27T23:54:41.606Z,48.11
2023-12-27T23:57:08.791Z,48.19
2023-12-27T23:59:37.278Z,48.30
